createdAt,value
2022-10-07T00:01:10.903Z,101626.72
2022-10-07T00:04:14.338Z,101619.16
2022-10-07T00:07:16.856Z,101619.16
2022-10-07T00:10:19.435Z,101625.44
2022-10-07T00:13:24.132Z,101620.47
2022-10-07T00:16:29.842Z,101618.41
2022-10-07T00:19:33.584Z,101619.44
2022-10-07T00:22:36.676Z,101624.94
2022-10-07T00:25:39.048Z,101616.13
2022-10-07T00:28:41.754Z,101619.87
2022-10-07T00:31:46.868Z,101615.47
2022-10-07T00:34:48.992Z,101615.34
2022-10-07T00:37:51.619Z,101617.06
2022-10-07T00:40:54.352Z,101602.38
2022-10-07T00:43:56.673Z,101605.06
2022-10-07T00:47:19.730Z,101610.50
2022-10-07T00:50:27.680Z,101616.00
2022-10-07T00:53:32.235Z,101607.22
2022-10-07T00:56:35.763Z,101601.31
2022-10-07T00:59:40.491Z,101598.84
2022-10-07T01:02:44.081Z,101604.38
2022-10-07T01:05:46.897Z,101599.13
2022-10-07T01:08:53.471Z,101601.81
2022-10-07T01:12:04.839Z,101597.69
2022-10-07T01:15:34.961Z,101600.09
2022-10-07T01:18:38.168Z,101594.84
2022-10-07T01:21:44.625Z,101592.50
2022-10-07T01:24:59.390Z,101594.47
2022-10-07T01:28:08.976Z,101590.25
2022-10-07T01:31:14.230Z,101592.22
2022-10-07T01:34:18.396Z,101599.63
2022-10-07T01:37:24.668Z,101599.25
2022-10-07T01:40:30.823Z,101598.69
2022-10-07T01:43:34.249Z,101598.09
2022-10-07T01:46:38.531Z,101595.19
2022-10-07T01:49:40.722Z,101594.59
2022-10-07T01:53:02.947Z,101591.41
2022-10-07T01:56:33.481Z,101588.69
2022-10-07T01:59:48.573Z,101588.97
2022-10-07T02:03:01.239Z,101589.09
2022-10-07T02:52:22.586Z,101584.66
2022-10-07T02:55:26.997Z,101575.91
2022-10-07T02:58:29.902Z,101576.03
2022-10-07T03:01:39.451Z,101576.91
2022-10-07T03:04:43.693Z,101574.56
2022-10-07T03:07:52.877Z,101576.16
2022-10-07T03:10:57.480Z,101573.88
2022-10-07T03:14:00.943Z,101570.50
2022-10-07T03:17:04.095Z,101580.97
2022-10-07T03:20:10.358Z,101575.50
2022-10-07T03:23:13.962Z,101574.12
2022-10-07T03:26:19.117Z,101570.75
2022-10-07T03:29:24.298Z,101572.53
2022-10-07T03:32:28.061Z,101565.59
2022-10-07T03:35:30.612Z,101572.59
2022-10-07T03:38:34.743Z,101572.72
2022-10-07T03:41:37.730Z,101572.53
2022-10-07T03:44:39.959Z,101584.00
2022-10-07T03:47:44.354Z,101579.44
2022-10-07T03:50:51.714Z,101571.53
2022-10-07T03:53:57.954Z,101567.38
2022-10-07T03:57:01.994Z,101570.25
2022-10-07T04:00:05.767Z,101562.75
2022-10-07T04:03:09.781Z,101562.06
2022-10-07T04:06:13.735Z,101564.69
2022-10-07T04:09:18.962Z,101547.81
2022-10-07T04:12:23.659Z,101558.00
2022-10-07T04:15:27.506Z,101554.19
2022-10-07T04:18:29.670Z,101557.84
2022-10-07T04:21:35.332Z,101558.28
2022-10-07T04:24:38.014Z,101553.28
2022-10-07T04:27:51.705Z,101543.25
2022-10-07T04:30:55.262Z,101550.53
2022-10-07T04:33:58.655Z,101545.00
2022-10-07T04:37:01.617Z,101549.66
2022-10-07T04:40:05.233Z,101550.50
2022-10-07T04:43:30.032Z,101548.66
2022-10-07T04:46:35.625Z,101556.56
2022-10-07T04:49:38.463Z,101555.56
2022-10-07T04:52:42.658Z,101561.88
2022-10-07T04:55:47.017Z,101559.34
2022-10-07T04:58:49.472Z,101560.94
2022-10-07T05:01:52.526Z,101554.19
2022-10-07T05:04:55.662Z,101564.12
2022-10-07T05:07:59.633Z,101565.34
2022-10-07T05:11:03.612Z,101561.97
2022-10-07T05:14:05.960Z,101567.34
2022-10-07T05:17:08.652Z,101569.81
2022-10-07T05:20:12.825Z,101580.03
2022-10-07T05:23:17.074Z,101584.78
2022-10-07T05:26:20.674Z,101585.41
2022-10-07T05:29:24.791Z,101588.34
2022-10-07T05:32:29.014Z,101584.59
2022-10-07T05:35:36.296Z,101579.75
2022-10-07T05:38:39.065Z,101571.41
2022-10-07T05:41:46.208Z,101581.19
2022-10-07T05:44:49.755Z,101582.63
2022-10-07T05:48:00.942Z,101582.22
2022-10-07T05:51:03.495Z,101577.59
2022-10-07T05:54:06.305Z,101583.16
2022-10-07T05:57:15.363Z,101583.41
2022-10-07T06:00:18.074Z,101584.91
2022-10-07T06:03:28.209Z,101591.31
2022-10-07T06:06:35.425Z,101590.06
2022-10-07T06:09:57.308Z,101596.44
2022-10-07T06:13:20.536Z,101592.16
2022-10-07T06:16:23.978Z,101596.59
2022-10-07T06:19:29.494Z,101595.66
2022-10-07T06:22:31.798Z,101596.69
2022-10-07T06:25:45.871Z,101593.16
2022-10-07T06:28:50.200Z,101594.41
2022-10-07T06:31:55.232Z,101596.22
2022-10-07T06:34:57.910Z,101597.62
2022-10-07T06:38:00.268Z,101600.78
2022-10-07T06:41:06.250Z,101588.97
2022-10-07T06:44:09.529Z,101593.72
2022-10-07T06:47:12.518Z,101592.97
2022-10-07T06:50:15.249Z,101591.53
2022-10-07T06:53:19.320Z,101587.69
2022-10-07T06:56:27.323Z,101588.41
2022-10-07T06:59:29.810Z,101590.03
2022-10-07T07:02:39.118Z,101597.06
2022-10-07T07:09:06.513Z,101592.84
2022-10-07T07:12:12.636Z,101599.69
2022-10-07T07:15:14.673Z,101589.91
2022-10-07T07:18:18.062Z,101599.50
2022-10-07T07:21:28.037Z,101588.56
2022-10-07T07:24:30.141Z,101581.56
2022-10-07T07:27:32.871Z,101584.56
2022-10-07T07:30:35.224Z,101582.41
2022-10-07T07:33:40.386Z,101583.94
2022-10-07T07:36:46.755Z,101586.16
2022-10-07T07:39:49.525Z,101583.56
2022-10-07T07:42:51.946Z,101584.69
2022-10-07T07:46:01.885Z,101579.19
2022-10-07T07:49:08.452Z,101578.34
2022-10-07T07:52:10.552Z,101580.00
2022-10-07T07:55:22.528Z,101577.59
2022-10-07T07:58:24.935Z,101574.84
2022-10-07T08:01:27.845Z,101582.41
2022-10-07T08:04:30.854Z,101579.41
2022-10-07T08:07:34.562Z,101577.41
2022-10-07T08:10:37.469Z,101573.06
2022-10-07T08:13:42.102Z,101568.16
2022-10-07T08:16:49.364Z,101574.62
2022-10-07T08:19:55.632Z,101567.31
2022-10-07T08:23:05.089Z,101564.28
2022-10-07T08:26:10.418Z,101568.16
2022-10-07T08:29:15.328Z,101569.19
2022-10-07T08:32:17.497Z,101577.62
2022-10-07T08:35:20.011Z,101560.66
2022-10-07T08:38:22.006Z,101563.97
2022-10-07T08:41:25.068Z,101561.00
2022-10-07T08:44:32.463Z,101559.66
2022-10-07T08:47:38.332Z,101557.94
2022-10-07T08:50:58.571Z,101551.53
2022-10-07T08:54:01.095Z,101546.06
2022-10-07T08:57:29.896Z,101543.38
2022-10-07T09:00:41.849Z,101537.31
2022-10-07T09:04:07.001Z,101534.44
2022-10-07T09:07:13.200Z,101543.09
2022-10-07T09:10:24.448Z,101542.53
2022-10-07T09:13:33.069Z,101531.25
2022-10-07T09:16:38.938Z,101529.88
2022-10-07T09:19:53.493Z,101525.47
2022-10-07T09:22:57.998Z,101519.69
2022-10-07T09:26:01.353Z,101513.69
2022-10-07T09:29:07.211Z,101509.81
2022-10-07T09:32:17.492Z,101510.69
2022-10-07T09:35:22.491Z,101516.28
2022-10-07T09:38:32.296Z,101508.00
2022-10-07T09:41:36.904Z,101497.53
2022-10-07T09:44:40.284Z,101486.94
2022-10-07T09:47:43.234Z,101490.66
2022-10-07T09:50:46.846Z,101487.50
2022-10-07T09:54:18.525Z,101485.53
2022-10-07T09:57:24.012Z,101472.28
2022-10-07T10:00:28.019Z,101474.25
2022-10-07T10:03:39.386Z,101471.00
2022-10-07T10:06:47.231Z,101470.41
2022-10-07T10:09:55.958Z,101453.94
2022-10-07T10:12:59.019Z,101451.25
2022-10-07T10:16:02.752Z,101455.84
2022-10-07T10:19:06.579Z,101449.50
2022-10-07T10:22:22.741Z,101458.38
2022-10-07T10:25:49.508Z,101443.69
2022-10-07T10:28:51.854Z,101442.41
2022-10-07T10:32:08.201Z,101436.25
2022-10-07T10:35:22.920Z,101441.81
2022-10-07T10:38:40.059Z,101426.66
2022-10-07T10:41:56.512Z,101422.75
2022-10-07T10:45:08.241Z,101426.09
2022-10-07T10:48:13.299Z,101415.81
2022-10-07T10:51:35.837Z,101414.38
2022-10-07T10:54:47.526Z,101411.28
2022-10-07T10:58:03.123Z,101409.13
2022-10-07T11:01:21.122Z,101400.22
2022-10-07T11:04:26.432Z,101389.44
2022-10-07T11:07:34.220Z,101390.84
2022-10-07T11:10:47.894Z,101385.75
2022-10-07T11:14:10.454Z,101373.00
2022-10-07T11:17:17.591Z,101362.72
2022-10-07T11:20:26.209Z,101359.56
2022-10-07T11:23:51.517Z,101354.75
2022-10-07T11:26:58.115Z,101352.78
2022-10-07T11:30:08.476Z,101342.75
2022-10-07T11:33:24.154Z,101340.38
2022-10-07T11:36:33.814Z,101335.75
2022-10-07T11:39:40.207Z,101331.28
2022-10-07T11:42:50.419Z,101325.88
2022-10-07T11:45:54.971Z,101325.19
2022-10-07T11:49:02.471Z,101316.47
2022-10-07T11:52:23.992Z,101317.97
2022-10-07T11:55:29.037Z,101307.81
2022-10-07T11:58:32.310Z,101303.06
2022-10-07T12:01:35.989Z,101290.94
2022-10-07T12:04:38.377Z,101295.06
2022-10-07T12:07:43.429Z,101293.34
2022-10-07T12:10:46.335Z,101287.56
2022-10-07T12:13:51.171Z,101276.25
2022-10-07T12:16:55.610Z,101267.75
2022-10-07T12:20:16.844Z,101274.59
2022-10-07T12:23:19.601Z,101272.84
2022-10-07T12:26:31.287Z,101259.38
2022-10-07T12:29:48.717Z,101253.72
2022-10-07T12:32:51.180Z,101252.09
2022-10-07T12:35:56.143Z,101248.69
2022-10-07T12:39:01.823Z,101240.03
2022-10-07T12:42:07.348Z,101241.88
2022-10-07T12:45:11.288Z,101233.91
2022-10-07T12:48:23.306Z,101237.91
2022-10-07T12:51:28.240Z,101237.25
2022-10-07T12:54:35.792Z,101227.41
2022-10-07T12:57:39.803Z,101227.78
2022-10-07T13:01:02.190Z,101222.44
2022-10-07T13:04:19.982Z,101215.94
2022-10-07T13:07:28.627Z,101206.31
2022-10-07T13:10:40.108Z,101207.94
2022-10-07T13:14:01.130Z,101209.63
2022-10-07T13:17:06.890Z,101201.66
2022-10-07T13:20:15.193Z,101189.03
2022-10-07T13:23:23.235Z,101194.62
2022-10-07T13:26:31.309Z,101189.25
2022-10-07T13:29:33.580Z,101181.22
2022-10-07T13:32:38.958Z,101183.06
2022-10-07T13:35:41.846Z,101173.50
2022-10-07T13:38:46.814Z,101169.34
2022-10-07T13:41:50.919Z,101168.50
2022-10-07T13:44:55.137Z,101168.66
2022-10-07T13:47:58.323Z,101173.13
2022-10-07T13:51:01.715Z,101159.69
2022-10-07T13:54:06.888Z,101157.00
2022-10-07T13:57:13.118Z,101151.56
2022-10-07T14:00:17.500Z,101152.06
2022-10-07T14:03:20.413Z,101153.06
2022-10-07T14:06:49.017Z,101139.28
2022-10-07T14:10:02.790Z,101134.59
2022-10-07T14:13:10.737Z,101135.75
2022-10-07T14:16:22.403Z,101128.28
2022-10-07T14:19:32.305Z,101117.12
2022-10-07T14:22:37.537Z,101125.91
2022-10-07T14:25:52.137Z,101119.41
2022-10-07T14:28:54.885Z,101122.84
2022-10-07T14:32:40.759Z,101116.88
2022-10-07T14:35:46.393Z,101113.84
2022-10-07T14:38:49.824Z,101116.69
2022-10-07T14:41:52.157Z,101110.19
2022-10-07T14:44:56.285Z,101113.75
2022-10-07T14:47:58.191Z,101108.37
2022-10-07T14:51:00.623Z,101108.19
2022-10-07T14:54:07.228Z,101106.81
2022-10-07T14:57:09.734Z,101099.50
2022-10-07T15:00:21.198Z,101101.78
2022-10-07T15:03:24.691Z,101095.91
2022-10-07T15:06:29.971Z,101100.59
2022-10-07T15:09:34.797Z,101093.44
2022-10-07T15:12:38.112Z,101089.72
2022-10-07T15:15:45.614Z,101096.16
2022-10-07T15:18:52.544Z,101085.41
2022-10-07T15:21:59.874Z,101091.91
2022-10-07T15:25:07.893Z,101091.31
2022-10-07T15:28:11.101Z,101089.84
2022-10-07T15:31:13.797Z,101083.69
2022-10-07T15:34:18.463Z,101085.75
2022-10-07T15:37:21.283Z,101090.66
2022-10-07T15:40:24.249Z,101079.59
2022-10-07T15:43:28.931Z,101082.53
2022-10-07T15:46:32.074Z,101083.81
2022-10-07T15:49:38.378Z,101085.66
2022-10-07T15:52:40.611Z,101080.28
2022-10-07T15:55:56.446Z,101084.91
2022-10-07T15:59:00.861Z,101078.41
2022-10-07T16:02:03.928Z,101078.69
2022-10-07T16:05:07.831Z,101077.00
2022-10-07T16:08:10.424Z,101077.47
2022-10-07T16:11:13.147Z,101079.12
2022-10-07T16:14:15.835Z,101076.91
2022-10-07T16:17:20.016Z,101075.53
2022-10-07T16:20:22.505Z,101083.00
2022-10-07T16:23:25.027Z,101078.97
2022-10-07T16:26:33.506Z,101077.84
2022-10-07T16:30:11.360Z,101084.97
2022-10-07T16:33:14.408Z,101077.56
2022-10-07T16:36:17.934Z,101076.12
2022-10-07T16:39:29.004Z,101075.53
2022-10-07T16:42:33.537Z,101076.28
2022-10-07T16:45:43.378Z,101074.66
2022-10-07T16:48:46.359Z,101079.75
2022-10-07T16:51:48.600Z,101077.31
2022-10-07T16:54:51.231Z,101077.50
2022-10-07T16:57:54.021Z,101072.41
2022-10-07T17:01:06.587Z,101074.84
2022-10-07T17:04:10.364Z,101075.97
2022-10-07T17:07:12.599Z,101078.38
2022-10-07T17:10:15.088Z,101079.22
2022-10-07T17:13:20.484Z,101071.00
2022-10-07T17:16:23.273Z,101067.19
2022-10-07T17:19:28.063Z,101067.69
2022-10-07T17:22:30.527Z,101068.88
2022-10-07T17:25:33.324Z,101069.97
2022-10-07T17:28:37.767Z,101067.13
2022-10-07T17:31:46.851Z,101069.81
2022-10-07T17:34:49.087Z,101064.19
2022-10-07T17:37:51.970Z,101068.28
2022-10-07T17:40:54.505Z,101066.31
2022-10-07T17:44:02.560Z,101069.94
2022-10-07T17:47:05.333Z,101069.22
2022-10-07T17:50:10.368Z,101073.19
2022-10-07T17:53:13.152Z,101070.91
2022-10-07T17:56:16.027Z,101063.78
2022-10-07T17:59:18.400Z,101059.00
2022-10-07T18:02:21.693Z,101071.06
2022-10-07T18:05:24.557Z,101066.31
2022-10-07T18:08:31.252Z,101059.03
2022-10-07T18:11:53.295Z,101062.12
2022-10-07T18:15:14.950Z,101067.84
2022-10-07T18:18:17.417Z,101062.81
2022-10-07T18:21:24.534Z,101045.88
2022-10-07T18:24:29.536Z,101050.50
2022-10-07T18:27:31.901Z,101047.53
2022-10-07T18:30:34.152Z,101048.00
2022-10-07T18:33:37.777Z,101046.34
2022-10-07T18:36:41.392Z,101050.19
2022-10-07T18:39:47.540Z,101048.22
2022-10-07T18:42:50.474Z,101059.22
2022-10-07T18:46:06.060Z,101052.66
2022-10-07T18:49:11.145Z,101046.09
2022-10-07T18:52:13.409Z,101035.91
2022-10-07T18:55:17.789Z,101036.03
2022-10-07T18:58:20.460Z,101040.44
2022-10-07T19:01:24.189Z,101040.16
2022-10-07T19:04:27.046Z,101033.22
2022-10-07T19:07:31.779Z,101031.16
2022-10-07T19:10:37.738Z,101032.69
2022-10-07T19:13:50.764Z,101032.84
2022-10-07T19:16:54.311Z,101029.94
2022-10-07T19:20:00.817Z,101032.78
2022-10-07T19:23:04.857Z,101028.06
2022-10-07T19:26:09.590Z,101036.38
2022-10-07T19:29:13.439Z,101032.66
2022-10-07T19:32:16.178Z,101026.56
2022-10-07T19:35:19.414Z,101038.72
2022-10-07T19:38:22.994Z,101033.81
2022-10-07T19:41:27.907Z,101029.47
2022-10-07T19:44:32.756Z,101039.56
2022-10-07T19:47:36.114Z,101034.44
2022-10-07T19:50:38.944Z,101041.44
2022-10-07T19:53:46.842Z,101034.31
2022-10-07T19:56:51.820Z,101029.53
2022-10-07T19:59:56.921Z,101023.44
2022-10-07T20:02:59.386Z,101026.16
2022-10-07T20:06:11.612Z,101035.81
2022-10-07T20:09:19.728Z,101033.00
2022-10-07T20:12:23.532Z,101030.50
2022-10-07T20:15:25.809Z,101027.88
2022-10-07T20:18:28.797Z,101033.44
2022-10-07T20:21:32.048Z,101030.53
2022-10-07T20:24:33.997Z,101026.34
2022-10-07T20:27:35.986Z,101024.13
2022-10-07T20:30:38.310Z,101027.41
2022-10-07T20:33:51.175Z,101028.75
2022-10-07T20:36:57.765Z,101026.56
2022-10-07T20:40:22.617Z,101024.59
2022-10-07T20:43:24.650Z,101024.81
2022-10-07T20:46:27.884Z,101020.94
2022-10-07T20:49:35.249Z,101026.38
2022-10-07T20:52:37.721Z,101020.44
2022-10-07T20:55:40.119Z,101025.78
2022-10-07T20:58:43.316Z,101023.81
2022-10-07T21:01:45.645Z,101025.38
2022-10-07T21:04:48.485Z,101027.34
2022-10-07T21:07:54.812Z,101016.16
2022-10-07T21:11:04.535Z,101018.66
2022-10-07T21:14:07.694Z,101016.53
2022-10-07T21:17:12.389Z,101009.44
2022-10-07T21:20:14.491Z,101012.47
2022-10-07T21:23:17.196Z,101012.75
2022-10-07T21:26:20.301Z,101012.44
2022-10-07T21:29:22.737Z,101007.31
2022-10-07T21:32:25.546Z,101009.22
2022-10-07T21:35:32.601Z,101015.16
2022-10-07T21:38:35.611Z,101012.66
2022-10-07T21:41:40.832Z,101014.75
2022-10-07T21:44:46.557Z,101003.63
2022-10-07T21:47:50.737Z,101001.97
2022-10-07T21:51:09.453Z,101008.03
2022-10-07T21:54:15.525Z,101008.78
2022-10-07T21:57:20.345Z,100996.72
2022-10-07T22:00:23.829Z,101000.69
2022-10-07T22:03:26.165Z,101001.72
2022-10-07T22:06:48.658Z,100993.25
2022-10-07T22:09:50.793Z,100988.44
2022-10-07T22:12:55.076Z,100993.37
2022-10-07T22:16:01.107Z,100989.37
2022-10-07T22:19:03.954Z,100986.97
2022-10-07T22:22:07.181Z,100981.31
2022-10-07T22:25:10.959Z,100979.72
2022-10-07T22:28:20.011Z,100970.62
2022-10-07T22:31:22.820Z,100973.47
2022-10-07T22:34:44.372Z,100972.09
2022-10-07T22:37:48.335Z,100965.91
2022-10-07T22:40:50.705Z,100966.66
2022-10-07T22:43:55.922Z,100973.75
2022-10-07T22:47:02.462Z,100960.59
2022-10-07T22:50:08.505Z,100963.81
2022-10-07T22:53:11.688Z,100965.87
2022-10-07T22:56:15.843Z,100956.59
2022-10-07T22:59:28.341Z,100952.72
2022-10-07T23:02:31.698Z,100950.50
2022-10-07T23:05:37.224Z,100948.28
2022-10-07T23:08:39.845Z,100951.31
2022-10-07T23:11:42.429Z,100950.56
2022-10-07T23:14:44.993Z,100948.16
2022-10-07T23:17:51.100Z,100949.09
2022-10-07T23:21:00.396Z,100951.41
2022-10-07T23:24:07.240Z,100948.91
2022-10-07T23:27:10.885Z,100948.91
2022-10-07T23:30:18.903Z,100945.53
2022-10-07T23:33:21.280Z,100940.84
2022-10-07T23:36:26.746Z,100941.25
2022-10-07T23:39:29.315Z,100938.28
2022-10-07T23:42:33.110Z,100935.28
2022-10-07T23:45:35.878Z,100929.53
2022-10-07T23:48:38.675Z,100936.81
2022-10-07T23:51:40.834Z,100938.91
2022-10-07T23:54:44.664Z,100934.78
2022-10-07T23:57:47.034Z,100927.91
